CheckWX is a tool to help pilots better visualize weather data.  It is not intended as a substitute for an official pre-flight weather briefing.

00:23:10 UTC

EHJA METAR
J6-a Sea
J6-a Sea, The Netherlands
Current

28 mins ago

EHJA 142355Z AUTO 07018KT 9999 FEW020/// SCT028/// BKN033/// 10/04 Q1006 W///H///
Observed
Nov-14 @ 23:55 UTC
Wind
  • 070° at 18 KTS
Visibility
10,000+ meters
Flight Rules
VFR
Cloud Levels
  • Few at 2,000' AGL
  • Scattered at 2,800' AGL
  • Broken at 3,300' AGL
Temperature
10°C / 50°F
Dewpoint
C / 39°F
Humidity
67%
Altimeter
29.7" Hg
Pressure
1005.92 hPa
Previous

58 mins ago

EHJA 142325Z AUTO 07018KT 9999 FEW019/// SCT031/// BKN035/// 10/05 Q1006 W///H///
Observed
Nov-14 @ 23:25 UTC
Wind
  • 070° at 18 KTS
Visibility
10,000+ meters
Flight Rules
VFR
Cloud Levels
  • Few at 1,900' AGL
  • Scattered at 3,100' AGL
  • Broken at 3,500' AGL
Temperature
10°C / 50°F
Dewpoint
C / 41°F
Humidity
71%
Altimeter
29.7" Hg
Pressure
1005.92 hPa
Previous

1 hour ago

EHJA 142255Z AUTO 07018KT 9999 FEW021/// SCT035/// 10/04 Q1005 W///H///
Observed
Nov-14 @ 22:55 UTC
Wind
  • 070° at 18 KTS
Visibility
10,000+ meters
Flight Rules
VFR
Cloud Levels
  • Few at 2,100' AGL
  • Scattered at 3,500' AGL
Temperature
10°C / 50°F
Dewpoint
C / 39°F
Humidity
67%
Altimeter
29.68" Hg
Pressure
1004.92 hPa